Time,TemperatureF,DewpointF,PressureIn,WindDirection,WindDirectionDegrees,WindSpeedMPH,WindSpeedGustMPH,Humidity,HourlyPrecipIn,Conditions,Clouds,dailyrainin,SolarRadiationWatts/m^2,SoftwareType,DateUTC
2013-02-26 00:00:00,28.9,21.0,30.12,NNE,22,2.3,0.0,72,0.00,FEW,,0.00,0.0,WeatherDisplay:10.37,2013-02-25 23:00:00,
2013-02-26 00:05:00,28.4,20.8,30.12,NNE,22,0.0,0.0,73,0.00,FEW,,0.00,0.0,WeatherDisplay:10.37,2013-02-25 23:05:00,
2013-02-26 00:10:00,28.2,21.0,30.12,NNE,22,0.0,0.0,74,0.00,FEW,,0.00,0.0,WeatherDisplay:10.37,2013-02-25 23:10:00,
2013-02-26 00:15:00,27.7,20.8,30.12,NNE,22,0.0,0.0,75,0.00,FEW,,0.00,0.0,WeatherDisplay:10.37,2013-02-25 23:15:00,
2013-02-26 00:20:00,27.3,20.4,30.12,NNE,22,0.0,0.0,75,0.00,FEW,,0.00,0.0,WeatherDisplay:10.37,2013-02-25 23:20:00,
2013-02-26 00:25:00,27.1,20.9,30.12,NNE,22,0.0,0.0,77,0.00,FEW,,0.00,0.0,WeatherDisplay:10.37,2013-02-25 23:25:00,
2013-02-26 00:30:00,27.1,20.9,30.12,NNE,22,0.0,0.0,77,0.00,FEW,,0.00,0.0,WeatherDisplay:10.37,2013-02-25 23:30:00,
2013-02-26 00:35:00,27.0,21.0,30.09,NNE,22,0.0,0.0,78,0.00,FEW,,0.00,0.0,WeatherDisplay:10.37,2013-02-25 23:35:00,
2013-02-26 00:40:00,27.1,21.2,30.09,NNE,22,0.0,0.0,78,0.00,FEW,,0.00,0.0,WeatherDisplay:10.37,2013-02-25 23:40:00,
2013-02-26 00:45:00,27.3,21.7,30.09,NNE,22,0.0,0.0,79,0.00,FEW,,0.00,0.0,WeatherDisplay:10.37,2013-02-25 23:45:00,
2013-02-26 00:50:00,27.1,21.5,30.12,NNE,22,0.0,0.0,79,0.00,FEW,,0.00,0.0,WeatherDisplay:10.37,2013-02-25 23:50:00,
2013-02-26 00:55:00,27.1,21.5,30.12,NNE,22,0.0,0.0,79,0.00,FEW,,0.00,0.0,WeatherDisplay:10.37,2013-02-25 23:55:00,
2013-02-26 01:00:00,27.1,21.5,30.12,NNE,22,3.5,3.5,79,0.00,FEW,,0.00,0.0,WeatherDisplay:10.37,2013-02-26 00:00:00,
2013-02-26 01:05:00,26.8,21.4,30.12,NNE,22,0.0,0.0,80,0.00,FEW,,0.00,0.0,WeatherDisplay:10.37,2013-02-26 00:05:00,
2013-02-26 01:10:00,27.0,21.9,30.12,NNE,22,0.0,0.0,81,0.00,FEW,,0.00,0.0,WeatherDisplay:10.37,2013-02-26 00:10:00,
2013-02-26 01:15:00,26.8,21.7,30.12,NNE,22,0.0,0.0,81,0.00,FEW,,0.00,0.0,WeatherDisplay:10.37,2013-02-26 00:15:00,
2013-02-26 01:20:00,26.6,21.8,30.09,NNE,22,0.0,0.0,82,0.00,FEW,,0.00,0.0,WeatherDisplay:10.37,2013-02-26 00:20:00,
2013-02-26 01:25:00,27.0,22.5,30.09,NNE,22,0.0,0.0,83,0.00,FEW,,0.00,0.0,WeatherDisplay:10.37,2013-02-26 00:25:00,
2013-02-26 01:30:00,27.1,22.7,30.09,NNE,22,0.0,0.0,83,0.00,FEW,,0.00,0.0,WeatherDisplay:10.37,2013-02-26 00:30:00,
2013-02-26 01:35:00,27.1,22.9,30.09,NNE,22,0.0,0.0,84,0.00,FEW,,0.00,0.0,WeatherDisplay:10.37,2013-02-26 00:35:00,
2013-02-26 01:40:00,27.0,22.8,30.09,NNE,22,0.0,0.0,84,0.00,FEW,,0.00,0.0,WeatherDisplay:10.37,2013-02-26 00:40:00,
2013-02-26 01:45:00,26.8,22.3,30.09,NNE,22,2.3,0.0,83,0.00,FEW,,0.00,0.0,WeatherDisplay:10.37,2013-02-26 00:45:00,
2013-02-26 01:50:00,26.8,22.6,30.12,NNE,22,0.0,0.0,84,0.00,FEW,,0.00,0.0,WeatherDisplay:10.37,2013-02-26 00:50:00,
2013-02-26 01:55:00,26.4,22.2,30.12,NNE,22,0.0,0.0,84,0.00,FEW,,0.00,0.0,WeatherDisplay:10.37,2013-02-26 00:55:00,
2013-02-26 02:00:00,26.1,21.9,30.12,NNE,22,0.0,0.0,84,0.00,FEW,,0.00,0.0,WeatherDisplay:10.37,2013-02-26 01:00:00,
2013-02-26 02:05:00,26.1,21.9,30.09,NNE,22,0.0,0.0,84,0.00,FEW,,0.00,0.0,WeatherDisplay:10.37,2013-02-26 01:05:00,
2013-02-26 02:10:00,26.1,22.2,30.09,NNE,22,2.6,0.0,85,0.00,FEW,,0.00,0.0,WeatherDisplay:10.37,2013-02-26 01:10:00,
2013-02-26 02:15:00,26.1,22.2,30.09,NNE,22,3.5,0.0,85,0.00,FEW,,0.00,0.0,WeatherDisplay:10.37,2013-02-26 01:15:00,
2013-02-26 02:20:00,26.1,22.2,30.12,NNE,22,0.0,0.0,85,0.00,FEW,,0.00,0.0,WeatherDisplay:10.37,2013-02-26 01:20:00,
2013-02-26 02:25:00,26.1,22.2,30.12,NNE,22,0.0,0.0,85,0.00,FEW,,0.00,0.0,WeatherDisplay:10.37,2013-02-26 01:25:00,
2013-02-26 02:30:00,26.1,22.4,30.12,NNE,22,0.0,0.0,86,0.00,FEW,,0.00,0.0,WeatherDisplay:10.37,2013-02-26 01:30:00,
2013-02-26 02:35:00,26.1,22.4,30.12,NNE,22,0.0,0.0,86,0.00,FEW,,0.00,0.0,WeatherDisplay:10.37,2013-02-26 01:35:00,
2013-02-26 02:40:00,25.7,22.1,30.12,NNE,22,0.0,0.0,86,0.00,FEW,,0.00,0.0,WeatherDisplay:10.37,2013-02-26 01:40:00,
2013-02-26 02:45:00,25.7,22.1,30.12,NNE,22,0.0,0.0,86,0.00,FEW,,0.00,0.0,WeatherDisplay:10.37,2013-02-26 01:45:00,
2013-02-26 02:50:00,26.1,22.7,30.09,NNE,22,0.0,0.0,87,0.00,FEW,,0.00,0.0,WeatherDisplay:10.37,2013-02-26 01:50:00,
2013-02-26 02:55:00,26.1,22.7,30.09,NNE,22,0.0,0.0,87,0.00,FEW,,0.00,0.0,WeatherDisplay:10.37,2013-02-26 01:55:00,
2013-02-26 03:00:00,26.2,22.9,30.09,NNE,22,0.0,0.0,87,0.00,FEW,,0.00,0.0,WeatherDisplay:10.37,2013-02-26 02:00:00,
2013-02-26 03:05:00,26.1,22.7,30.12,NNE,22,0.0,0.0,87,0.00,FEW,,0.00,0.0,WeatherDisplay:10.37,2013-02-26 02:05:00,
2013-02-26 03:10:00,25.9,22.5,30.12,NNE,22,0.0,0.0,87,0.00,FEW,,0.00,0.0,WeatherDisplay:10.37,2013-02-26 02:10:00,
2013-02-26 03:15:00,25.9,22.3,30.12,NNE,22,0.0,0.0,86,0.00,FEW,,0.00,0.0,WeatherDisplay:10.37,2013-02-26 02:15:00,
2013-02-26 03:20:00,25.7,22.1,30.09,NNE,22,2.3,2.3,86,0.00,FEW,,0.00,0.0,WeatherDisplay:10.37,2013-02-26 02:20:00,
2013-02-26 03:25:00,25.5,21.9,30.09,NNE,22,0.0,0.0,86,0.00,FEW,,0.00,0.0,WeatherDisplay:10.37,2013-02-26 02:25:00,
2013-02-26 03:30:00,25.5,21.9,30.09,NNE,22,0.0,0.0,86,0.00,FEW,,0.00,0.0,WeatherDisplay:10.37,2013-02-26 02:30:00,
2013-02-26 03:35:00,25.5,22.2,30.09,NNE,22,0.0,0.0,87,0.00,FEW,,0.00,0.0,WeatherDisplay:10.37,2013-02-26 02:35:00,
2013-02-26 03:40:00,25.5,22.2,30.09,NNE,22,0.0,0.0,87,0.00,FEW,,0.00,0.0,WeatherDisplay:10.37,2013-02-26 02:40:00,
2013-02-26 03:45:00,25.5,22.2,30.09,NNE,22,0.0,0.0,87,0.00,FEW,,0.00,0.0,WeatherDisplay:10.37,2013-02-26 02:45:00,
2013-02-26 03:50:00,25.7,22.4,30.09,NNE,22,0.0,0.0,87,0.00,FEW,,0.00,0.0,WeatherDisplay:10.37,2013-02-26 02:50:00,
2013-02-26 03:55:00,25.7,22.4,30.09,NNE,22,0.0,0.0,87,0.00,FEW,,0.00,0.0,WeatherDisplay:10.37,2013-02-26 02:55:00,
2013-02-26 04:00:00,25.7,22.4,30.09,NNE,22,0.0,0.0,87,0.00,FEW,,0.00,0.0,WeatherDisplay:10.37,2013-02-26 03:00:00,
2013-02-26 04:05:00,25.7,22.4,30.09,NNE,22,0.0,0.0,87,0.00,FEW,,0.00,0.0,WeatherDisplay:10.37,2013-02-26 03:05:00,
2013-02-26 04:10:00,25.7,22.4,30.09,NNE,22,0.0,0.0,87,0.00,FEW,,0.00,0.0,WeatherDisplay:10.37,2013-02-26 03:10:00,
2013-02-26 04:15:00,25.9,22.8,30.09,NNE,22,0.0,0.0,88,0.00,FEW,,0.00,0.0,WeatherDisplay:10.37,2013-02-26 03:15:00,
2013-02-26 04:20:00,25.9,22.8,30.09,NNE,22,0.0,0.0,88,0.00,FEW,,0.00,0.0,WeatherDisplay:10.37,2013-02-26 03:20:00,
2013-02-26 04:25:00,25.9,22.8,30.09,NNE,22,0.0,0.0,88,0.00,FEW,,0.00,0.0,WeatherDisplay:10.37,2013-02-26 03:25:00,
2013-02-26 04:30:00,26.1,23.0,30.09,NNE,22,0.0,0.0,88,0.00,FEW,,0.00,0.0,WeatherDisplay:10.37,2013-02-26 03:30:00,
2013-02-26 04:35:00,25.7,22.6,30.09,NNE,22,0.0,0.0,88,0.00,FEW,,0.00,0.0,WeatherDisplay:10.37,2013-02-26 03:35:00,
2013-02-26 04:40:00,25.9,22.8,30.09,NNE,22,0.0,0.0,88,0.00,FEW,,0.00,0.0,WeatherDisplay:10.37,2013-02-26 03:40:00,
2013-02-26 04:45:00,26.1,23.0,30.09,NNE,22,0.0,0.0,88,0.00,FEW,,0.00,0.0,WeatherDisplay:10.37,2013-02-26 03:45:00,
2013-02-26 04:50:00,26.1,23.0,30.09,NNE,22,0.0,0.0,88,0.00,FEW,,0.00,0.0,WeatherDisplay:10.37,2013-02-26 03:50:00,
2013-02-26 04:55:00,26.1,23.0,30.09,NNE,22,0.0,0.0,88,0.00,FEW,,0.00,0.0,WeatherDisplay:10.37,2013-02-26 03:55:00,
2013-02-26 05:00:00,25.9,22.8,30.09,NNE,22,0.0,0.0,88,0.00,FEW,,0.00,0.0,WeatherDisplay:10.37,2013-02-26 04:00:00,
2013-02-26 05:06:00,25.9,22.8,30.09,NNE,22,0.0,0.0,88,0.00,FEW,,0.00,0.0,WeatherDisplay:10.37,2013-02-26 04:06:00,
2013-02-26 05:11:00,26.1,23.0,30.09,NNE,22,0.0,0.0,88,0.00,FEW,,0.00,0.0,WeatherDisplay:10.37,2013-02-26 04:11:00,
2013-02-26 05:16:00,26.1,23.0,30.09,NNE,22,0.0,0.0,88,0.00,FEW,,0.00,0.0,WeatherDisplay:10.37,2013-02-26 04:16:00,
2013-02-26 05:21:00,26.1,23.0,30.09,NNE,22,0.0,0.0,88,0.00,FEW,,0.00,0.0,WeatherDisplay:10.37,2013-02-26 04:21:00,
2013-02-26 05:26:00,26.1,23.0,30.09,NNE,22,0.0,0.0,88,0.00,FEW,,0.00,0.0,WeatherDisplay:10.37,2013-02-26 04:26:00,
2013-02-26 05:31:00,26.1,23.0,30.09,NNE,22,0.0,0.0,88,0.00,FEW,,0.00,0.0,WeatherDisplay:10.37,2013-02-26 04:31:00,
2013-02-26 05:36:00,26.1,23.0,30.09,NNE,22,0.0,0.0,88,0.00,FEW,,0.00,0.0,WeatherDisplay:10.37,2013-02-26 04:36:00,
2013-02-26 05:41:00,26.1,23.0,30.09,NNE,22,0.0,0.0,88,0.00,FEW,,0.00,0.0,WeatherDisplay:10.37,2013-02-26 04:41:00,
2013-02-26 05:46:00,25.5,22.5,30.09,NNE,22,2.3,2.3,88,0.00,FEW,,0.00,0.0,WeatherDisplay:10.37,2013-02-26 04:46:00,
2013-02-26 05:51:00,25.3,22.3,30.09,NNE,22,0.0,0.0,88,0.00,FEW,,0.00,0.0,WeatherDisplay:10.37,2013-02-26 04:51:00,
2013-02-26 05:56:00,25.0,21.9,30.09,NNE,22,0.0,0.0,88,0.00,FEW,,0.00,0.0,WeatherDisplay:10.37,2013-02-26 04:56:00,
2013-02-26 06:00:00,25.2,22.1,30.09,NNE,22,0.0,0.0,88,0.00,FEW,,0.00,0.0,WeatherDisplay:10.37,2013-02-26 05:00:00,
2013-02-26 06:01:00,25.2,22.1,30.09,NNE,22,0.0,0.0,88,0.00,FEW,,0.00,0.0,WeatherDisplay:10.37,2013-02-26 05:01:00,
2013-02-26 06:06:00,25.2,22.1,30.09,NNE,22,0.0,0.0,88,0.00,FEW,,0.00,0.0,WeatherDisplay:10.37,2013-02-26 05:06:00,
2013-02-26 06:11:00,25.2,22.4,30.09,NNE,22,0.0,0.0,89,0.00,FEW,,0.00,0.0,WeatherDisplay:10.37,2013-02-26 05:11:00,
2013-02-26 06:16:00,25.2,22.4,30.09,NNE,22,0.0,0.0,89,0.00,FEW,,0.00,0.0,WeatherDisplay:10.37,2013-02-26 05:16:00,
2013-02-26 06:21:00,25.2,22.4,30.09,NNE,22,0.0,0.0,89,0.00,FEW,,0.00,0.0,WeatherDisplay:10.37,2013-02-26 05:21:00,
2013-02-26 06:26:00,25.3,22.6,30.09,NNE,22,0.0,0.0,89,0.00,FEW,,0.00,0.0,WeatherDisplay:10.37,2013-02-26 05:26:00,
2013-02-26 06:31:00,25.3,22.6,30.09,NNE,22,0.0,0.0,89,0.00,FEW,,0.00,0.0,WeatherDisplay:10.37,2013-02-26 05:31:00,
2013-02-26 13:19:00,51.7,17.9,30.12,SW,225,3.5,3.5,26,0.00,OVC,,0.00,0.0,WeatherDisplay:10.37,2013-02-26 12:19:00,
2013-02-26 13:24:00,52.7,18.7,30.12,NE,45,5.8,5.8,26,0.00,FEW,,0.00,0.0,WeatherDisplay:10.37,2013-02-26 12:24:00,
2013-02-26 13:29:00,53.8,18.7,30.12,NE,45,3.6,3.6,25,0.00,FEW,,0.00,0.0,WeatherDisplay:10.37,2013-02-26 12:29:00,
2013-02-26 13:34:00,53.8,18.7,30.12,North,0,3.5,3.5,25,0.00,OVC,,0.00,0.0,WeatherDisplay:10.37,2013-02-26 12:34:00,
2013-02-26 13:39:00,53.8,15.8,30.12,NE,45,3.5,3.6,22,0.00,OVC,,0.00,0.0,WeatherDisplay:10.37,2013-02-26 12:39:00,
2013-02-26 13:44:00,52.5,15.7,30.12,ENE,68,4.6,0.0,23,0.00,OVC,,0.00,0.0,WeatherDisplay:10.37,2013-02-26 12:44:00,
2013-02-26 13:49:00,54.0,18.9,30.12,ENE,68,2.3,2.3,25,0.00,FEW,,0.00,0.0,WeatherDisplay:10.37,2013-02-26 12:49:00,
2013-02-26 13:54:00,54.0,15.9,30.12,ENE,68,3.5,0.0,22,0.00,FEW,,0.00,0.0,WeatherDisplay:10.37,2013-02-26 12:54:00,
2013-02-26 13:59:00,53.6,15.6,30.12,ENE,68,2.3,2.3,22,0.00,FEW,,0.00,0.0,WeatherDisplay:10.37,2013-02-26 12:59:00,
2013-02-26 14:04:00,55.4,17.1,30.12,East,90,5.9,5.9,22,0.00,FEW,,0.00,0.0,WeatherDisplay:10.37,2013-02-26 13:04:00,
2013-02-26 14:09:00,53.8,15.8,30.12,East,90,3.5,0.0,22,0.00,FEW,,0.00,0.0,WeatherDisplay:10.37,2013-02-26 13:09:00,
2013-02-26 14:14:00,53.8,15.8,30.12,NE,45,4.6,4.6,22,0.00,FEW,,0.00,0.0,WeatherDisplay:10.37,2013-02-26 13:14:00,
2013-02-26 14:19:00,52.0,15.3,30.09,North,0,5.9,5.9,23,0.00,FEW,,0.00,0.0,WeatherDisplay:10.37,2013-02-26 13:19:00,
2013-02-26 14:24:00,51.3,17.5,30.09,East,90,8.3,8.3,26,0.00,FEW,,0.00,0.0,WeatherDisplay:10.37,2013-02-26 13:24:00,
2013-02-26 14:29:00,51.3,17.5,30.09,NE,45,5.9,5.9,26,0.00,FEW,,0.00,0.0,WeatherDisplay:10.37,2013-02-26 13:29:00,
2013-02-26 14:34:00,51.1,17.3,30.12,NE,45,9.2,9.2,26,0.00,FEW,,0.00,0.0,WeatherDisplay:10.37,2013-02-26 13:34:00,
2013-02-26 14:39:00,51.6,17.8,30.12,NE,45,8.3,8.3,26,0.00,FEW,,0.00,0.0,WeatherDisplay:10.37,2013-02-26 13:39:00,
2013-02-26 14:44:00,51.3,17.5,30.12,East,90,4.6,4.6,26,0.00,FEW,,0.00,0.0,WeatherDisplay:10.37,2013-02-26 13:44:00,
2013-02-26 14:49:00,51.4,17.6,30.09,NE,45,5.8,5.8,26,0.00,FEW,,0.00,0.0,WeatherDisplay:10.37,2013-02-26 13:49:00,
2013-02-26 14:54:00,51.4,17.6,30.09,East,90,5.8,5.8,26,0.00,FEW,,0.00,0.0,WeatherDisplay:10.37,2013-02-26 13:54:00,
2013-02-26 14:59:00,51.1,17.3,30.09,East,90,6.9,6.9,26,0.00,FEW,,0.00,0.0,WeatherDisplay:10.37,2013-02-26 13:59:00,
2013-02-26 15:04:00,51.8,18.0,30.12,North,0,4.6,4.6,26,0.00,FEW,,0.00,0.0,WeatherDisplay:10.37,2013-02-26 14:04:00,
2013-02-26 15:09:00,52.0,18.1,30.12,East,90,5.8,5.9,26,0.00,FEW,,0.00,0.0,WeatherDisplay:10.37,2013-02-26 14:09:00,
2013-02-26 15:14:00,52.9,18.9,30.12,NE,45,4.6,0.0,26,0.00,FEW,,0.00,0.0,WeatherDisplay:10.37,2013-02-26 14:14:00,
2013-02-26 15:19:00,52.9,18.9,30.09,East,90,5.8,5.8,26,0.00,FEW,,0.00,0.0,WeatherDisplay:10.37,2013-02-26 14:19:00,
2013-02-26 15:24:00,51.8,18.0,30.09,East,90,7.6,7.6,26,0.00,FEW,,0.00,0.0,WeatherDisplay:10.37,2013-02-26 14:24:00,
2013-02-26 15:29:00,51.8,18.0,30.09,NE,45,4.6,0.0,26,0.00,FEW,,0.00,0.0,WeatherDisplay:10.37,2013-02-26 14:29:00,
2013-02-26 15:34:00,52.5,18.6,30.09,NE,45,5.4,5.4,26,0.00,FEW,,0.00,0.0,WeatherDisplay:10.37,2013-02-26 14:34:00,
2013-02-26 15:39:00,52.2,18.3,30.09,ENE,68,4.0,0.0,26,0.00,FEW,,0.00,0.0,WeatherDisplay:10.37,2013-02-26 14:39:00,
2013-02-26 15:44:00,52.0,18.1,30.09,East,90,3.6,3.6,26,0.00,FEW,,0.00,0.0,WeatherDisplay:10.37,2013-02-26 14:44:00,
2013-02-26 15:49:00,51.8,18.0,30.09,East,90,5.8,5.8,26,0.00,FEW,,0.00,0.0,WeatherDisplay:10.37,2013-02-26 14:49:00,
2013-02-26 15:54:00,51.3,17.5,30.09,East,90,5.8,5.8,26,0.00,FEW,,0.00,0.0,WeatherDisplay:10.37,2013-02-26 14:54:00,
2013-02-26 15:59:00,51.3,17.5,30.09,ENE,62,3.0,8.0,26,0.00,FEW,,0.00,0.0,WeatherDisplay:10.37,2013-02-26 14:59:00,
2013-02-26 16:05:00,51.6,18.7,30.09,NE,45,4.6,4.9,27,0.00,FEW,,0.00,0.0,WeatherDisplay:10.37,2013-02-26 15:05:00,
2013-02-26 16:10:00,51.3,18.4,30.09,NE,45,5.8,5.8,27,0.00,FEW,,0.00,0.0,WeatherDisplay:10.37,2013-02-26 15:10:00,
2013-02-26 16:15:00,51.4,18.5,30.09,NNE,22,5.8,5.8,27,0.00,FEW,,0.00,0.0,WeatherDisplay:10.37,2013-02-26 15:15:00,
2013-02-26 16:20:00,50.7,17.9,30.09,East,90,5.9,5.9,27,0.00,SCT,,0.00,0.0,WeatherDisplay:10.37,2013-02-26 15:20:00,
2013-02-26 16:25:00,50.7,17.9,30.09,NE,45,6.9,6.9,27,0.00,SCT,,0.00,0.0,WeatherDisplay:10.37,2013-02-26 15:25:00,
2013-02-26 16:30:00,50.7,17.9,30.09,NE,45,5.8,5.8,27,0.00,SCT,,0.00,0.0,WeatherDisplay:10.37,2013-02-26 15:30:00,
2013-02-26 16:35:00,51.4,18.5,30.09,ENE,68,5.9,5.9,27,0.00,SCT,,0.00,0.0,WeatherDisplay:10.37,2013-02-26 15:35:00,
2013-02-26 16:40:00,51.6,18.7,30.09,NE,45,2.6,0.0,27,0.00,SCT,,0.00,0.0,WeatherDisplay:10.37,2013-02-26 15:40:00,
2013-02-26 16:45:00,50.9,18.1,30.09,NE,45,8.1,8.1,27,0.00,SCT,,0.00,0.0,WeatherDisplay:10.37,2013-02-26 15:45:00,
2013-02-26 16:50:00,50.4,18.4,30.09,NE,45,5.8,5.8,28,0.00,FEW,,0.00,0.0,WeatherDisplay:10.37,2013-02-26 15:50:00,
2013-02-26 16:55:00,50.2,18.3,30.09,East,90,6.9,6.9,28,0.00,FEW,,0.00,0.0,WeatherDisplay:10.37,2013-02-26 15:55:00,
2013-02-26 17:00:00,50.2,18.3,30.09,NE,45,5.8,5.8,28,0.00,FEW,,0.00,0.0,WeatherDisplay:10.37,2013-02-26 16:00:00,
2013-02-26 17:05:00,49.8,18.8,30.12,East,90,4.6,4.6,29,0.00,FEW,,0.00,0.0,WeatherDisplay:10.37,2013-02-26 16:05:00,
2013-02-26 17:10:00,50.0,18.9,30.12,NE,45,5.9,5.9,29,0.00,FEW,,0.00,0.0,WeatherDisplay:10.37,2013-02-26 16:10:00,
2013-02-26 17:15:00,49.8,18.8,30.12,NE,45,8.1,8.1,29,0.00,FEW,,0.00,0.0,WeatherDisplay:10.37,2013-02-26 16:15:00,
2013-02-26 17:20:00,49.5,19.3,30.12,NE,45,6.2,6.2,30,0.00,FEW,,0.00,0.0,WeatherDisplay:10.37,2013-02-26 16:20:00,
2013-02-26 17:25:00,49.8,19.6,30.12,North,0,8.1,8.1,30,0.00,FEW,,0.00,0.0,WeatherDisplay:10.37,2013-02-26 16:25:00,
2013-02-26 17:30:00,49.1,19.0,30.12,NE,45,8.1,8.1,30,0.00,FEW,,0.00,0.0,WeatherDisplay:10.37,2013-02-26 16:30:00,
2013-02-26 17:35:00,49.1,19.0,30.12,East,90,2.3,2.3,30,0.00,FEW,,0.00,0.0,WeatherDisplay:10.37,2013-02-26 16:35:00,
2013-02-26 17:40:00,49.1,19.7,30.12,East,90,4.0,4.0,31,0.00,FEW,,0.00,0.0,WeatherDisplay:10.37,2013-02-26 16:40:00,
2013-02-26 17:45:00,48.7,19.4,30.12,East,90,4.6,4.6,31,0.00,FEW,,0.00,0.0,WeatherDisplay:10.37,2013-02-26 16:45:00,
2013-02-26 17:50:00,48.2,18.9,30.12,East,90,3.5,3.5,31,0.00,FEW,,0.00,0.0,WeatherDisplay:10.37,2013-02-26 16:50:00,
2013-02-26 17:55:00,48.0,19.5,30.12,East,90,4.9,4.9,32,0.00,FEW,,0.00,0.0,WeatherDisplay:10.37,2013-02-26 16:55:00,
2013-02-26 18:00:00,47.7,19.2,30.12,East,90,3.1,3.1,32,0.00,FEW,,0.00,0.0,WeatherDisplay:10.37,2013-02-26 17:00:00,
2013-02-26 18:05:00,47.3,19.6,30.12,East,90,3.6,3.6,33,0.00,FEW,,0.00,0.0,WeatherDisplay:10.37,2013-02-26 17:05:00,
2013-02-26 18:10:00,46.9,19.3,30.12,East,90,3.5,0.0,33,0.00,FEW,,0.00,0.0,WeatherDisplay:10.37,2013-02-26 17:10:00,
2013-02-26 18:15:00,46.9,20.0,30.12,East,90,2.3,2.3,34,0.00,FEW,,0.00,0.0,WeatherDisplay:10.37,2013-02-26 17:15:00,
2013-02-26 18:20:00,46.2,20.0,30.09,ENE,68,4.6,4.6,35,0.00,FEW,,0.00,0.0,WeatherDisplay:10.37,2013-02-26 17:20:00,
2013-02-26 18:25:00,45.7,20.2,30.09,ENE,68,2.3,0.0,36,0.00,FEW,,0.00,0.0,WeatherDisplay:10.37,2013-02-26 17:25:00,
2013-02-26 18:30:00,45.3,20.5,30.09,ENE,68,0.0,0.0,37,0.00,FEW,,0.00,0.0,WeatherDisplay:10.37,2013-02-26 17:30:00,
2013-02-26 18:35:00,44.8,20.7,30.12,ENE,68,0.0,0.0,38,0.00,FEW,,0.00,0.0,WeatherDisplay:10.37,2013-02-26 17:35:00,
2013-02-26 18:40:00,44.2,21.4,30.12,ENE,68,0.0,0.0,40,0.00,FEW,,0.00,0.0,WeatherDisplay:10.37,2013-02-26 17:40:00,
2013-02-26 18:45:00,43.7,20.9,30.12,ENE,68,0.0,0.0,40,0.00,FEW,,0.00,0.0,WeatherDisplay:10.37,2013-02-26 17:45:00,
2013-02-26 18:50:00,43.3,21.2,30.12,ENE,68,0.0,0.0,41,0.00,FEW,,0.00,0.0,WeatherDisplay:10.37,2013-02-26 17:50:00,
2013-02-26 18:55:00,43.3,21.2,30.12,ENE,68,0.0,0.0,41,0.00,FEW,,0.00,0.0,WeatherDisplay:10.37,2013-02-26 17:55:00,
2013-02-26 19:00:00,43.3,21.2,30.12,ENE,68,0.0,0.0,41,0.00,FEW,,0.00,0.0,WeatherDisplay:10.37,2013-02-26 18:00:00,
2013-02-26 19:05:00,42.4,21.5,30.12,ENE,68,0.0,0.0,43,0.00,FEW,,0.00,0.0,WeatherDisplay:10.37,2013-02-26 18:05:00,
2013-02-26 19:10:00,42.4,21.5,30.12,ENE,68,0.0,0.0,43,0.00,FEW,,0.00,0.0,WeatherDisplay:10.37,2013-02-26 18:10:00,
2013-02-26 19:15:00,42.4,21.5,30.12,ENE,68,0.0,0.0,43,0.00,FEW,,0.00,0.0,WeatherDisplay:10.37,2013-02-26 18:15:00,
2013-02-26 19:20:00,41.2,21.4,30.12,ENE,68,0.0,0.0,45,0.00,FEW,,0.00,0.0,WeatherDisplay:10.37,2013-02-26 18:20:00,
2013-02-26 19:25:00,41.2,21.4,30.12,ENE,68,0.0,0.0,45,0.00,FEW,,0.00,0.0,WeatherDisplay:10.37,2013-02-26 18:25:00,
2013-02-26 19:30:00,41.2,21.4,30.12,ENE,68,0.0,0.0,45,0.00,FEW,,0.00,0.0,WeatherDisplay:10.37,2013-02-26 18:30:00,
2013-02-26 19:35:00,41.2,21.4,30.12,ENE,68,0.0,0.0,45,0.00,FEW,,0.00,0.0,WeatherDisplay:10.37,2013-02-26 18:35:00,
2013-02-26 19:40:00,41.2,21.4,30.12,ENE,68,0.0,0.0,45,0.00,FEW,,0.00,0.0,WeatherDisplay:10.37,2013-02-26 18:40:00,
2013-02-26 19:45:00,41.2,21.4,30.12,ENE,68,0.0,0.0,45,0.00,FEW,,0.00,0.0,WeatherDisplay:10.37,2013-02-26 18:45:00,
2013-02-26 19:50:00,41.2,21.4,30.15,ENE,68,0.0,0.0,45,0.00,FEW,,0.00,0.0,WeatherDisplay:10.37,2013-02-26 18:50:00,
2013-02-26 19:55:00,41.2,21.4,30.15,ENE,68,0.0,0.0,45,0.00,FEW,,0.00,0.0,WeatherDisplay:10.37,2013-02-26 18:55:00,
2013-02-26 20:00:00,41.2,21.4,30.15,ENE,68,0.0,0.0,45,0.00,FEW,,0.00,0.0,WeatherDisplay:10.37,2013-02-26 19:00:00,
2013-02-26 20:05:00,39.2,22.6,30.15,ENE,68,0.0,0.0,51,0.00,FEW,,0.00,0.0,WeatherDisplay:10.37,2013-02-26 19:05:00,
2013-02-26 20:10:00,39.2,22.6,30.15,ENE,68,0.0,0.0,51,0.00,FEW,,0.00,0.0,WeatherDisplay:10.37,2013-02-26 19:10:00,
2013-02-26 20:15:00,38.5,22.8,30.15,ENE,68,0.0,0.0,53,0.00,FEW,,0.00,0.0,WeatherDisplay:10.37,2013-02-26 19:15:00,
2013-02-26 20:20:00,38.1,22.9,30.15,ENE,68,0.0,0.0,54,0.00,FEW,,0.00,0.0,WeatherDisplay:10.37,2013-02-26 19:20:00,
2013-02-26 20:25:00,38.1,23.4,30.15,ENE,68,0.0,0.0,55,0.00,FEW,,0.00,0.0,WeatherDisplay:10.37,2013-02-26 19:25:00,
2013-02-26 20:30:00,37.9,23.6,30.15,ENE,68,0.0,0.0,56,0.00,FEW,,0.00,0.0,WeatherDisplay:10.37,2013-02-26 19:30:00,
2013-02-26 20:35:00,38.1,23.8,30.15,ENE,68,0.0,0.0,56,0.00,FEW,,0.00,0.0,WeatherDisplay:10.37,2013-02-26 19:35:00,
2013-02-26 20:40:00,38.1,23.4,30.15,ENE,68,0.0,0.0,55,0.00,FEW,,0.00,0.0,WeatherDisplay:10.37,2013-02-26 19:40:00,
2013-02-26 20:45:00,38.3,23.5,30.15,ENE,68,0.0,0.0,55,0.00,FEW,,0.00,0.0,WeatherDisplay:10.37,2013-02-26 19:45:00,
2013-02-26 20:50:00,38.1,23.4,30.15,ENE,68,0.0,0.0,55,0.00,FEW,,0.00,0.0,WeatherDisplay:10.37,2013-02-26 19:50:00,
2013-02-26 20:55:00,38.1,23.4,30.15,ENE,68,0.0,0.0,55,0.00,FEW,,0.00,0.0,WeatherDisplay:10.37,2013-02-26 19:55:00,
2013-02-26 21:00:00,37.9,23.6,30.15,ENE,68,0.0,0.0,56,0.00,FEW,,0.00,0.0,WeatherDisplay:10.37,2013-02-26 20:00:00,
2013-02-26 21:05:00,37.9,23.6,30.15,ENE,68,0.0,0.0,56,0.00,FEW,,0.00,0.0,WeatherDisplay:10.37,2013-02-26 20:05:00,
2013-02-26 21:10:00,37.6,23.7,30.15,ENE,68,0.0,0.0,57,0.00,FEW,,0.00,0.0,WeatherDisplay:10.37,2013-02-26 20:10:00,
2013-02-26 21:15:00,37.2,23.8,30.15,ENE,68,0.0,0.0,58,0.00,SCT,,0.00,0.0,WeatherDisplay:10.37,2013-02-26 20:15:00,
2013-02-26 21:20:00,37.0,24.0,30.15,ENE,68,0.0,0.0,59,0.00,SCT,,0.00,0.0,WeatherDisplay:10.37,2013-02-26 20:20:00,
2013-02-26 21:25:00,36.9,24.3,30.15,ENE,68,0.0,0.0,60,0.00,SCT,,0.00,0.0,WeatherDisplay:10.37,2013-02-26 20:25:00,
2013-02-26 21:30:00,36.7,24.5,30.15,ENE,68,0.0,0.0,61,0.00,SCT,,0.00,0.0,WeatherDisplay:10.37,2013-02-26 20:30:00,
2013-02-26 21:35:00,36.3,24.1,30.15,ENE,68,2.3,0.0,61,0.00,SCT,,0.00,0.0,WeatherDisplay:10.37,2013-02-26 20:35:00,
2013-02-26 21:41:00,36.1,24.0,30.15,ENE,68,2.6,2.6,61,0.00,SCT,,0.00,0.0,WeatherDisplay:10.37,2013-02-26 20:41:00,
2013-02-26 21:46:00,36.1,24.0,30.15,ENE,68,2.6,0.0,61,0.00,SCT,,0.00,0.0,WeatherDisplay:10.37,2013-02-26 20:46:00,
2013-02-26 21:51:00,36.0,23.8,30.15,ENE,68,2.3,0.0,61,0.00,SCT,,0.00,0.0,WeatherDisplay:10.37,2013-02-26 20:51:00,
2013-02-26 21:56:00,36.0,23.8,30.15,ENE,68,0.0,0.0,61,0.00,SCT,,0.00,0.0,WeatherDisplay:10.37,2013-02-26 20:56:00,
2013-02-26 22:01:00,35.8,23.2,30.15,ENE,68,3.1,0.0,60,0.00,SCT,,0.00,0.0,WeatherDisplay:10.37,2013-02-26 21:01:00,
2013-02-26 22:06:00,35.8,23.2,30.15,ENE,68,2.6,0.0,60,0.00,SCT,,0.00,0.0,WeatherDisplay:10.37,2013-02-26 21:06:00,
2013-02-26 22:11:00,35.8,23.2,30.15,ENE,68,0.0,0.0,60,0.00,SCT,,0.00,0.0,WeatherDisplay:10.37,2013-02-26 21:11:00,
2013-02-26 22:16:00,35.2,23.5,30.15,ENE,68,0.0,0.0,62,0.00,FEW,,0.00,0.0,WeatherDisplay:10.37,2013-02-26 21:16:00,
2013-02-26 22:21:00,35.2,23.9,30.15,ENE,68,2.3,0.0,63,0.00,FEW,,0.00,0.0,WeatherDisplay:10.37,2013-02-26 21:21:00,
2013-02-26 22:26:00,35.2,23.9,30.15,NE,45,2.6,2.6,63,0.00,FEW,,0.00,0.0,WeatherDisplay:10.37,2013-02-26 21:26:00,
2013-02-26 22:31:00,35.2,23.9,30.15,NE,45,0.0,0.0,63,0.00,FEW,,0.00,0.0,WeatherDisplay:10.37,2013-02-26 21:31:00,
2013-02-26 22:36:00,35.6,24.2,30.15,NE,45,3.5,3.5,63,0.00,FEW,,0.00,0.0,WeatherDisplay:10.37,2013-02-26 21:36:00,
2013-02-26 22:41:00,35.6,23.9,30.15,NE,45,2.3,2.6,62,0.00,FEW,,0.00,0.0,WeatherDisplay:10.37,2013-02-26 21:41:00,
2013-02-26 22:46:00,35.6,23.9,30.15,North,0,2.3,0.0,62,0.00,FEW,,0.00,0.0,WeatherDisplay:10.37,2013-02-26 21:46:00,
2013-02-26 22:51:00,35.6,23.9,30.15,North,0,0.0,0.0,62,0.00,FEW,,0.00,0.0,WeatherDisplay:10.37,2013-02-26 21:51:00,
2013-02-26 22:56:00,35.6,23.9,30.15,North,0,0.0,0.0,62,0.00,FEW,,0.00,0.0,WeatherDisplay:10.37,2013-02-26 21:56:00,
2013-02-26 23:01:00,35.6,23.9,30.15,North,0,2.3,2.3,62,0.00,FEW,,0.00,0.0,WeatherDisplay:10.37,2013-02-26 22:01:00,
2013-02-26 23:06:00,35.6,23.9,30.15,NW,315,3.5,3.5,62,0.00,FEW,,0.00,0.0,WeatherDisplay:10.37,2013-02-26 22:06:00,
2013-02-26 23:11:00,35.6,23.9,30.15,NW,315,2.3,2.3,62,0.00,FEW,,0.00,0.0,WeatherDisplay:10.37,2013-02-26 22:11:00,
2013-02-26 23:16:00,35.6,23.9,30.15,NW,315,2.3,0.0,62,0.00,FEW,,0.00,0.0,WeatherDisplay:10.37,2013-02-26 22:16:00,
2013-02-26 23:21:00,35.6,23.9,30.15,NW,315,0.0,0.0,62,0.00,FEW,,0.00,0.0,WeatherDisplay:10.37,2013-02-26 22:21:00,
2013-02-26 23:26:00,35.6,23.9,30.15,NW,315,0.0,0.0,62,0.00,FEW,,0.00,0.0,WeatherDisplay:10.37,2013-02-26 22:26:00,
2013-02-26 23:31:00,35.6,23.9,30.15,NW,315,0.0,0.0,62,0.00,FEW,,0.00,0.0,WeatherDisplay:10.37,2013-02-26 22:31:00,
2013-02-26 23:36:00,35.6,23.9,30.15,NW,315,2.6,2.6,62,0.00,FEW,,0.00,0.0,WeatherDisplay:10.37,2013-02-26 22:36:00,
2013-02-26 23:41:00,35.6,23.9,30.15,NW,315,2.3,2.3,62,0.00,FEW,,0.00,0.0,WeatherDisplay:10.37,2013-02-26 22:41:00,
2013-02-26 23:46:00,36.0,23.0,30.15,NW,315,2.3,0.0,59,0.00,FEW,,0.00,0.0,WeatherDisplay:10.37,2013-02-26 22:46:00,
2013-02-26 23:51:00,36.0,23.0,30.18,NW,315,0.0,0.0,59,0.00,FEW,,0.00,0.0,WeatherDisplay:10.37,2013-02-26 22:51:00,
2013-02-26 23:56:00,36.0,23.0,30.18,NW,315,0.0,0.0,59,0.00,FEW,,0.00,0.0,WeatherDisplay:10.37,2013-02-26 22:56:00,